Terminal Aerodrome Forecast
Issued by NWS

Home | Current Version | Previous Version | Text Only | Print | Product List | Glossary On
Versions: 1 2 3 4 5 6 7 8 9 10 11 12 13 14 15 16 17 18 19
870
FTUS41 KBGM 310526
TAFRME
TAF
KRME 310526Z 3106/0106 VRB03KT P6SM FEW200
     FM311300 27007KT P6SM FEW250
     FM311700 29010G16KT P6SM FEW250
     FM010000 30006KT P6SM FEW250=

USA.gov is the U.S. government's official web portal to all federal, state and local government web resources and services.